createdAt,value
2023-05-16T00:01:42.686Z,14.20
2023-05-16T00:04:11.094Z,14.17
2023-05-16T00:06:39.207Z,14.13
2023-05-16T00:09:07.730Z,14.13
2023-05-16T00:11:36.270Z,14.11
2023-05-16T00:14:04.462Z,14.09
2023-05-16T00:16:33.197Z,14.09
2023-05-16T00:19:02.949Z,14.09
2023-05-16T00:21:32.051Z,14.10
2023-05-16T00:24:00.144Z,14.10
2023-05-16T00:26:28.269Z,14.10
2023-05-16T00:28:56.586Z,14.12
2023-05-16T00:31:25.147Z,14.15
2023-05-16T00:33:54.910Z,14.17
2023-05-16T00:36:23.894Z,14.19
2023-05-16T00:38:52.227Z,14.20
2023-05-16T00:41:21.483Z,14.21
2023-05-16T00:43:49.859Z,14.24
2023-05-16T00:46:17.942Z,14.27
2023-05-16T00:48:46.257Z,14.26
2023-05-16T00:51:14.385Z,14.23
2023-05-16T00:53:42.646Z,14.18
2023-05-16T00:56:11.273Z,14.15
2023-05-16T00:58:39.488Z,14.13
2023-05-16T01:01:08.344Z,14.12
2023-05-16T01:03:37.723Z,14.10
2023-05-16T01:06:07.691Z,14.09
2023-05-16T01:08:36.080Z,14.07
2023-05-16T01:11:47.399Z,14.07
2023-05-16T01:14:24.414Z,14.07
2023-05-16T01:17:12.530Z,14.09
2023-05-16T01:19:46.877Z,14.12
2023-05-16T01:22:37.930Z,14.12
2023-05-16T01:25:40.480Z,14.08
2023-05-16T01:28:10.384Z,14.02
2023-05-16T01:30:45.085Z,14.00
2023-05-16T01:33:13.217Z,13.99
2023-05-16T01:35:55.561Z,13.93
2023-05-16T01:38:27.556Z,13.87
2023-05-16T01:41:13.362Z,13.86
2023-05-16T01:43:49.422Z,13.89
2023-05-16T01:46:26.576Z,13.89
2023-05-16T01:49:21.174Z,13.90
2023-05-16T01:52:00.459Z,13.91
2023-05-16T01:54:32.469Z,13.90
2023-05-16T01:57:03.852Z,13.86
2023-05-16T01:59:33.367Z,13.82
2023-05-16T02:02:01.678Z,13.79
2023-05-16T02:04:29.945Z,13.79
2023-05-16T02:07:00.652Z,13.78
2023-05-16T02:09:28.941Z,13.78
2023-05-16T02:11:57.121Z,13.79
2023-05-16T02:14:26.434Z,13.83
2023-05-16T02:16:55.521Z,13.87
2023-05-16T02:19:23.891Z,13.92
2023-05-16T02:21:51.973Z,13.94
2023-05-16T02:24:20.440Z,13.99
2023-05-16T02:26:48.901Z,13.98
2023-05-16T02:29:17.099Z,13.88
2023-05-16T02:31:45.602Z,13.77
2023-05-16T02:34:14.126Z,13.67
2023-05-16T02:36:44.173Z,13.62
2023-05-16T02:39:13.139Z,13.60
2023-05-16T02:41:41.652Z,13.62
2023-05-16T02:44:10.574Z,13.65
2023-05-16T02:46:38.766Z,13.69
2023-05-16T02:49:07.009Z,13.71
2023-05-16T02:51:35.101Z,13.73
2023-05-16T02:54:03.741Z,13.75
2023-05-16T02:56:31.862Z,13.78
2023-05-16T02:59:00.522Z,13.80
2023-05-16T03:01:28.701Z,13.84
2023-05-16T03:03:57.270Z,13.86
2023-05-16T03:06:25.780Z,13.86
2023-05-16T03:08:54.086Z,13.85
2023-05-16T03:11:23.151Z,13.84
2023-05-16T03:13:51.261Z,13.82
2023-05-16T03:16:19.416Z,13.80
2023-05-16T03:18:48.141Z,13.77
2023-05-16T03:21:16.484Z,13.75
2023-05-16T03:23:46.344Z,13.76
2023-05-16T03:26:14.885Z,13.78
2023-05-16T03:28:43.434Z,13.79
2023-05-16T03:31:11.645Z,13.76
2023-05-16T03:33:39.965Z,13.77
2023-05-16T03:36:08.683Z,13.80
2023-05-16T03:38:37.434Z,13.83
2023-05-16T03:41:05.595Z,13.89
2023-05-16T03:43:33.789Z,13.92
2023-05-16T03:46:02.669Z,13.95
2023-05-16T03:48:30.768Z,14.00
2023-05-16T03:50:58.956Z,14.06
2023-05-16T03:53:27.405Z,14.12
2023-05-16T03:55:56.129Z,14.17
2023-05-16T03:58:25.112Z,14.22
2023-05-16T04:00:53.328Z,14.27
2023-05-16T04:03:28.631Z,14.31
2023-05-16T04:05:57.951Z,14.34
2023-05-16T04:08:26.203Z,14.42
2023-05-16T04:10:54.669Z,14.52
2023-05-16T04:13:23.286Z,14.60
2023-05-16T04:15:51.668Z,14.67
2023-05-16T04:18:19.792Z,14.77
2023-05-16T04:20:48.033Z,14.86
2023-05-16T04:23:16.720Z,14.96
2023-05-16T04:25:45.262Z,15.05
2023-05-16T04:28:13.813Z,15.10
2023-05-16T04:30:42.339Z,15.13
2023-05-16T04:33:10.671Z,15.17
2023-05-16T04:35:40.236Z,15.18
2023-05-16T04:38:09.169Z,15.18
2023-05-16T04:40:37.830Z,15.15
2023-05-16T04:43:07.036Z,15.10
2023-05-16T04:45:37.495Z,15.06
2023-05-16T04:48:06.564Z,15.00
2023-05-16T04:50:34.975Z,14.93
2023-05-16T04:53:03.187Z,14.88
2023-05-16T04:55:31.783Z,14.84
2023-05-16T04:58:00.243Z,14.77
2023-05-16T05:00:28.867Z,14.71
2023-05-16T05:02:57.715Z,14.71
2023-05-16T05:05:26.482Z,14.74
2023-05-16T05:07:55.094Z,14.77
2023-05-16T05:10:23.461Z,14.80
2023-05-16T05:12:51.937Z,14.79
2023-05-16T05:15:20.585Z,14.73
2023-05-16T05:17:49.295Z,14.67
2023-05-16T05:20:18.250Z,14.67
2023-05-16T05:22:47.185Z,14.70
2023-05-16T05:25:15.916Z,14.72
2023-05-16T05:27:44.438Z,14.74
2023-05-16T05:30:13.121Z,14.75
2023-05-16T05:32:41.770Z,14.76
2023-05-16T05:35:10.047Z,14.77
2023-05-16T05:37:38.257Z,14.75
2023-05-16T05:40:10.164Z,14.71
2023-05-16T05:42:38.238Z,14.65
2023-05-16T05:45:07.895Z,14.56
2023-05-16T05:47:36.005Z,14.49
2023-05-16T05:50:04.975Z,14.45
2023-05-16T05:52:32.992Z,14.42
2023-05-16T05:55:01.365Z,14.37
2023-05-16T05:57:29.652Z,14.33
2023-05-16T05:59:57.955Z,14.32
2023-05-16T06:02:26.200Z,14.31
2023-05-16T06:04:55.030Z,14.30
2023-05-16T06:07:23.570Z,14.31
2023-05-16T06:09:52.375Z,14.33
2023-05-16T06:12:20.690Z,14.35
2023-05-16T06:14:49.113Z,14.37
2023-05-16T06:17:17.968Z,14.33
2023-05-16T06:19:47.451Z,14.32
2023-05-16T06:22:15.790Z,14.31
2023-05-16T06:24:44.535Z,14.31
2023-05-16T06:27:12.849Z,14.29
2023-05-16T06:29:41.236Z,14.29
2023-05-16T06:32:12.427Z,14.32
2023-05-16T06:34:42.720Z,14.32
2023-05-16T06:37:11.340Z,14.33
2023-05-16T06:39:39.845Z,14.33
2023-05-16T06:42:08.369Z,14.34
2023-05-16T06:44:39.231Z,14.32
2023-05-16T06:47:08.445Z,14.30
2023-05-16T06:49:37.128Z,14.30
2023-05-16T06:52:06.359Z,14.37
2023-05-16T06:54:35.696Z,14.44
2023-05-16T06:57:04.607Z,14.52
2023-05-16T06:59:33.544Z,14.59
2023-05-16T07:02:02.205Z,14.55
2023-05-16T07:04:31.246Z,14.54
2023-05-16T07:06:59.882Z,14.55
2023-05-16T07:09:28.694Z,14.56
2023-05-16T07:11:57.010Z,14.56
2023-05-16T07:14:25.658Z,14.51
2023-05-16T07:16:54.735Z,14.46
2023-05-16T07:19:24.114Z,14.43
2023-05-16T07:21:55.782Z,14.46
2023-05-16T07:24:24.136Z,14.50
2023-05-16T07:31:00.880Z,14.70
2023-05-16T07:33:29.780Z,14.78
2023-05-16T07:36:12.210Z,14.81
2023-05-16T07:38:46.276Z,14.82
2023-05-16T07:41:14.839Z,14.83
2023-05-16T07:43:43.574Z,14.81
2023-05-16T07:46:12.780Z,14.81
2023-05-16T07:48:41.879Z,14.82
2023-05-16T07:51:10.615Z,14.79
2023-05-16T07:53:39.653Z,14.80
2023-05-16T07:56:09.136Z,14.82
2023-05-16T07:58:39.095Z,14.86
2023-05-16T08:01:07.718Z,14.86
2023-05-16T08:03:36.791Z,14.86
2023-05-16T08:06:05.383Z,14.87
2023-05-16T08:08:33.838Z,14.91
2023-05-16T08:11:02.175Z,15.00
2023-05-16T08:13:30.783Z,15.09
2023-05-16T08:15:59.372Z,15.16
2023-05-16T08:18:28.391Z,15.25
2023-05-16T08:20:59.246Z,15.31
2023-05-16T08:23:27.570Z,15.36
2023-05-16T08:25:55.918Z,15.37
2023-05-16T08:28:24.239Z,15.37
2023-05-16T08:30:52.733Z,15.41
2023-05-16T08:33:21.204Z,15.46
2023-05-16T08:35:53.015Z,15.49
2023-05-16T08:38:21.425Z,15.53
2023-05-16T08:40:49.958Z,15.59
2023-05-16T08:43:18.492Z,15.65
2023-05-16T08:45:47.442Z,15.68
2023-05-16T08:48:17.391Z,15.69
2023-05-16T08:50:46.690Z,15.74
2023-05-16T08:53:21.850Z,15.85
2023-05-16T08:55:51.771Z,15.98
2023-05-16T08:58:21.222Z,16.09
2023-05-16T09:00:49.786Z,16.20
2023-05-16T09:03:20.877Z,16.23
2023-05-16T09:05:50.297Z,16.29
2023-05-16T09:08:18.646Z,16.31
2023-05-16T09:10:47.084Z,16.37
2023-05-16T09:13:15.920Z,16.44
2023-05-16T09:15:46.191Z,16.48
2023-05-16T09:18:14.683Z,16.52
2023-05-16T09:20:50.262Z,16.52
2023-05-16T09:23:24.747Z,16.54
2023-05-16T09:25:54.184Z,16.50
2023-05-16T09:28:22.878Z,16.45
2023-05-16T09:30:54.765Z,16.49
2023-05-16T09:33:24.329Z,16.62
2023-05-16T09:36:00.829Z,16.67
2023-05-16T09:38:29.292Z,16.71
2023-05-16T09:40:58.631Z,16.84
2023-05-16T09:43:27.551Z,16.90
2023-05-16T09:46:00.178Z,16.96
2023-05-16T09:48:28.651Z,16.98
2023-05-16T09:51:03.418Z,17.08
2023-05-16T09:53:33.395Z,17.21
2023-05-16T09:56:08.252Z,17.33
2023-05-16T09:58:39.738Z,17.49
2023-05-16T10:01:09.476Z,17.63
2023-05-16T10:03:40.695Z,17.81
2023-05-16T10:06:10.817Z,18.01
2023-05-16T10:08:42.740Z,18.20
2023-05-16T10:11:12.021Z,18.39
2023-05-16T10:13:40.683Z,18.53
2023-05-16T10:16:14.540Z,18.78
2023-05-16T10:18:43.716Z,18.98
2023-05-16T10:21:15.718Z,19.08
2023-05-16T10:23:49.195Z,19.16
2023-05-16T10:26:17.925Z,19.18
2023-05-16T10:28:46.646Z,19.30
2023-05-16T10:31:16.424Z,19.45
2023-05-16T10:33:45.358Z,19.55
2023-05-16T10:36:15.888Z,19.61
2023-05-16T10:38:45.511Z,19.70
2023-05-16T10:41:14.604Z,19.75
2023-05-16T10:43:46.667Z,19.75
2023-05-16T10:46:15.594Z,19.73
2023-05-16T10:48:44.232Z,19.74
2023-05-16T10:51:38.881Z,19.82
2023-05-16T10:54:15.769Z,19.94
2023-05-16T10:56:44.313Z,20.08
2023-05-16T10:59:26.652Z,20.13
2023-05-16T11:01:56.633Z,20.17
2023-05-16T11:04:45.955Z,20.25
2023-05-16T11:07:15.561Z,20.27
2023-05-16T11:10:05.572Z,20.29
2023-05-16T11:12:39.275Z,20.33
2023-05-16T11:15:29.291Z,20.31
2023-05-16T11:18:24.227Z,20.28
2023-05-16T11:20:53.370Z,20.20
2023-05-16T11:23:26.569Z,20.19
2023-05-16T11:25:57.703Z,20.17
2023-05-16T11:28:27.354Z,20.21
2023-05-16T11:31:00.136Z,20.24
2023-05-16T11:33:35.440Z,20.16
2023-05-16T11:38:43.911Z,20.12
2023-05-16T11:41:12.856Z,20.14
2023-05-16T11:43:45.000Z,20.18
2023-05-16T11:46:17.199Z,20.18
2023-05-16T11:48:47.788Z,20.21
2023-05-16T11:51:19.155Z,20.26
2023-05-16T11:53:52.645Z,20.29
2023-05-16T11:56:22.488Z,20.24
2023-05-16T11:58:52.151Z,20.16
2023-05-16T12:01:21.311Z,20.13
2023-05-16T12:03:58.444Z,20.15
2023-05-16T12:06:27.220Z,20.24
2023-05-16T12:08:55.799Z,20.35
2023-05-16T12:11:24.328Z,20.42
2023-05-16T12:13:53.039Z,20.52
2023-05-16T12:16:21.587Z,20.61
2023-05-16T12:18:50.088Z,20.74
2023-05-16T12:21:18.478Z,20.88
2023-05-16T12:23:46.890Z,21.03
2023-05-16T12:26:15.041Z,21.17
2023-05-16T12:28:44.806Z,21.29
2023-05-16T12:31:30.978Z,21.33
2023-05-16T12:34:00.769Z,21.37
2023-05-16T12:36:33.663Z,21.44
2023-05-16T12:39:08.151Z,21.56
2023-05-16T12:41:42.563Z,21.76
2023-05-16T12:44:20.088Z,21.91
2023-05-16T12:46:53.024Z,21.96
2023-05-16T12:49:22.974Z,21.95
2023-05-16T12:51:53.444Z,21.96
2023-05-16T12:54:25.676Z,21.95
2023-05-16T12:56:54.059Z,21.94
2023-05-16T12:59:22.528Z,21.93
2023-05-16T13:01:51.115Z,21.92
2023-05-16T13:04:20.752Z,21.88
2023-05-16T13:06:59.093Z,21.88
2023-05-16T13:09:31.371Z,21.93
2023-05-16T13:12:01.572Z,21.94
2023-05-16T13:14:29.884Z,21.96
2023-05-16T13:16:58.546Z,22.02
2023-05-16T13:19:27.469Z,21.99
2023-05-16T13:21:56.333Z,22.00
2023-05-16T13:24:24.937Z,21.97
2023-05-16T13:26:54.229Z,21.92
2023-05-16T13:29:22.559Z,21.89
2023-05-16T13:31:51.075Z,21.84
2023-05-16T13:34:19.309Z,21.77
2023-05-16T13:36:54.544Z,21.67
2023-05-16T13:39:24.034Z,21.55
2023-05-16T13:41:52.941Z,21.49
2023-05-16T13:44:22.723Z,21.41
2023-05-16T13:46:51.464Z,21.29
2023-05-16T13:49:19.914Z,21.12
2023-05-16T13:51:48.520Z,21.04
2023-05-16T13:54:17.368Z,21.02
2023-05-16T13:56:46.780Z,21.01
2023-05-16T13:59:20.703Z,20.98
2023-05-16T14:01:57.128Z,21.00
2023-05-16T14:04:26.847Z,20.98
2023-05-16T14:06:56.516Z,20.95
2023-05-16T14:09:24.884Z,20.89
2023-05-16T14:11:53.234Z,20.82
2023-05-16T14:14:24.107Z,20.79
2023-05-16T14:16:52.963Z,20.85
2023-05-16T14:19:22.352Z,20.93
2023-05-16T14:21:50.879Z,21.02
2023-05-16T14:24:19.435Z,21.12
2023-05-16T14:26:47.767Z,21.19
2023-05-16T14:29:19.068Z,21.22
2023-05-16T14:31:47.558Z,21.19
2023-05-16T14:34:16.060Z,21.20
2023-05-16T14:36:44.531Z,21.21
2023-05-16T14:39:13.632Z,21.13
2023-05-16T14:41:41.936Z,21.07
2023-05-16T14:44:10.262Z,21.09
2023-05-16T14:46:38.465Z,21.04
2023-05-16T14:49:06.993Z,20.98
2023-05-16T14:51:35.894Z,20.97
2023-05-16T14:54:04.946Z,20.98
2023-05-16T14:56:33.875Z,21.01
2023-05-16T14:59:02.919Z,20.98
2023-05-16T15:01:31.862Z,20.96
2023-05-16T15:04:00.845Z,20.99
2023-05-16T15:06:30.482Z,21.04
2023-05-16T15:08:59.266Z,21.05
2023-05-16T15:11:29.495Z,20.98
2023-05-16T15:13:58.179Z,20.88
2023-05-16T15:16:26.826Z,20.79
2023-05-16T15:18:55.271Z,20.74
2023-05-16T15:21:23.829Z,20.75
2023-05-16T15:23:52.340Z,20.77
2023-05-16T15:26:22.620Z,20.78
2023-05-16T15:28:51.439Z,20.79
2023-05-16T15:31:20.030Z,20.78
2023-05-16T15:33:48.823Z,20.77
2023-05-16T15:36:17.451Z,20.74
2023-05-16T15:38:46.989Z,20.69
2023-05-16T15:41:32.043Z,20.63
2023-05-16T15:44:05.619Z,20.56
2023-05-16T15:46:34.122Z,20.52
2023-05-16T15:49:03.013Z,20.49
2023-05-16T15:51:31.859Z,20.43
2023-05-16T15:54:00.179Z,20.40
2023-05-16T15:56:28.770Z,20.39
2023-05-16T15:58:57.400Z,20.37
2023-05-16T16:01:25.883Z,20.33
2023-05-16T16:03:54.301Z,20.22
2023-05-16T16:06:22.590Z,20.10
2023-05-16T16:08:51.069Z,20.03
2023-05-16T16:11:21.992Z,19.98
2023-05-16T16:13:50.150Z,19.96
2023-05-16T16:16:18.233Z,19.93
2023-05-16T16:18:46.446Z,19.90
2023-05-16T16:21:14.542Z,19.86
2023-05-16T16:23:43.255Z,19.82
2023-05-16T16:26:11.418Z,19.78
2023-05-16T16:28:39.839Z,19.75
2023-05-16T16:31:08.062Z,19.71
2023-05-16T16:33:38.790Z,19.71
2023-05-16T16:36:07.145Z,19.72
2023-05-16T16:38:35.456Z,19.76
2023-05-16T16:41:03.475Z,19.78
2023-05-16T16:43:31.580Z,19.79
2023-05-16T16:45:59.463Z,19.82
2023-05-16T16:48:27.885Z,19.86
2023-05-16T16:50:57.407Z,19.86
2023-05-16T16:53:26.542Z,19.81
2023-05-16T16:55:54.819Z,19.74
2023-05-16T16:58:23.053Z,19.68
2023-05-16T17:00:51.639Z,19.62
2023-05-16T17:03:19.820Z,19.57
2023-05-16T17:05:47.844Z,19.51
2023-05-16T17:08:15.891Z,19.44
2023-05-16T17:10:44.002Z,19.40
2023-05-16T17:13:14.496Z,19.34
2023-05-16T17:15:44.285Z,19.30
2023-05-16T17:18:12.415Z,19.28
2023-05-16T17:20:41.126Z,19.23
2023-05-16T17:23:09.345Z,19.19
2023-05-16T17:25:37.328Z,19.17
2023-05-16T17:28:05.627Z,19.17
2023-05-16T17:30:33.637Z,19.18
2023-05-16T17:33:02.021Z,19.20
2023-05-16T17:35:30.344Z,19.19
2023-05-16T17:37:59.524Z,19.19
2023-05-16T17:40:27.505Z,19.17
2023-05-16T17:42:55.954Z,19.14
2023-05-16T17:45:24.942Z,19.12
2023-05-16T17:47:53.266Z,19.08
2023-05-16T17:50:22.190Z,19.00
2023-05-16T17:52:50.118Z,18.89
2023-05-16T17:55:18.616Z,18.81
2023-05-16T17:57:47.458Z,18.73
2023-05-16T18:00:17.816Z,18.68
2023-05-16T18:02:46.164Z,18.64
2023-05-16T18:05:16.638Z,18.59
2023-05-16T18:07:44.904Z,18.55
2023-05-16T18:10:13.664Z,18.54
2023-05-16T18:12:41.879Z,18.51
2023-05-16T18:15:10.989Z,18.48
2023-05-16T18:17:39.392Z,18.43
2023-05-16T18:20:11.748Z,18.36
2023-05-16T18:22:41.951Z,18.29
2023-05-16T18:25:10.967Z,18.23
2023-05-16T18:27:39.966Z,18.20
2023-05-16T18:30:08.740Z,18.15
2023-05-16T18:32:37.165Z,18.11
2023-05-16T18:35:05.960Z,18.06
2023-05-16T18:37:34.147Z,18.01
2023-05-16T18:40:02.365Z,18.00
2023-05-16T18:42:30.638Z,17.99
2023-05-16T18:44:58.961Z,17.99
2023-05-16T18:47:27.090Z,17.99
2023-05-16T18:49:55.350Z,17.99
2023-05-16T18:52:23.793Z,18.00
2023-05-16T18:54:52.180Z,18.00
2023-05-16T18:57:20.330Z,18.01
2023-05-16T18:59:48.873Z,18.01
2023-05-16T19:02:22.259Z,18.00
2023-05-16T19:04:56.729Z,17.97
2023-05-16T19:07:26.505Z,17.92
2023-05-16T19:09:54.453Z,17.88
2023-05-16T19:12:22.876Z,17.89
2023-05-16T19:14:51.728Z,17.90
2023-05-16T19:17:19.795Z,17.90
2023-05-16T19:19:47.996Z,17.90
2023-05-16T19:22:16.319Z,17.89
2023-05-16T19:24:44.696Z,17.90
2023-05-16T19:27:12.996Z,17.91
2023-05-16T19:29:41.053Z,17.93
2023-05-16T19:32:09.118Z,17.96
2023-05-16T19:34:38.537Z,17.98
2023-05-16T19:37:09.048Z,18.02
2023-05-16T19:39:37.152Z,18.06
2023-05-16T19:42:07.430Z,18.07
2023-05-16T19:44:42.992Z,18.10
2023-05-16T19:47:11.576Z,18.12
2023-05-16T19:49:40.000Z,18.14
2023-05-16T19:52:09.356Z,18.14
2023-05-16T19:54:37.696Z,18.16
2023-05-16T19:57:06.245Z,18.19
2023-05-16T19:59:34.280Z,18.20
2023-05-16T20:02:04.430Z,18.22
2023-05-16T20:04:32.591Z,18.24
2023-05-16T20:07:00.803Z,18.27
2023-05-16T20:09:28.825Z,18.30
2023-05-16T20:11:58.226Z,18.36
2023-05-16T20:14:29.300Z,18.39
2023-05-16T20:16:58.992Z,18.43
2023-05-16T20:19:27.506Z,18.46
2023-05-16T20:21:56.770Z,18.45
2023-05-16T20:24:24.832Z,18.45
2023-05-16T20:26:52.873Z,18.45
2023-05-16T20:29:20.937Z,18.45
2023-05-16T20:31:49.535Z,18.47
2023-05-16T20:34:17.510Z,18.49
2023-05-16T20:36:45.571Z,18.52
2023-05-16T20:39:14.265Z,18.59
2023-05-16T20:41:42.556Z,18.67
2023-05-16T20:44:10.601Z,18.68
2023-05-16T20:46:40.550Z,18.67
2023-05-16T20:49:08.903Z,18.71
2023-05-16T20:51:37.185Z,18.73
2023-05-16T20:54:05.425Z,18.70
2023-05-16T20:56:33.526Z,18.66
2023-05-16T20:59:01.554Z,18.57
2023-05-16T21:01:29.669Z,18.51
2023-05-16T21:03:58.068Z,18.48
2023-05-16T21:06:26.235Z,18.43
2023-05-16T21:08:54.400Z,18.36
2023-05-16T21:11:22.922Z,18.30
2023-05-16T21:13:51.269Z,18.21
2023-05-16T21:16:19.533Z,18.09
2023-05-16T21:18:48.738Z,17.97
2023-05-16T21:21:18.916Z,17.87
2023-05-16T21:23:47.270Z,17.77
2023-05-16T21:26:15.489Z,17.72
2023-05-16T21:28:54.605Z,17.69
2023-05-16T21:31:24.042Z,17.66
2023-05-16T21:33:52.715Z,17.65
2023-05-16T21:36:21.539Z,17.64
2023-05-16T21:38:50.000Z,17.60
2023-05-16T21:41:20.137Z,17.54
2023-05-16T21:43:48.793Z,17.49
2023-05-16T21:46:17.409Z,17.44
2023-05-16T21:48:45.927Z,17.40
2023-05-16T21:51:14.251Z,17.36
2023-05-16T21:53:42.444Z,17.33
2023-05-16T21:56:10.874Z,17.30
2023-05-16T21:58:39.815Z,17.28
2023-05-16T22:01:08.504Z,17.25
2023-05-16T22:03:36.782Z,17.23
2023-05-16T22:06:05.448Z,17.21
2023-05-16T22:08:34.095Z,17.18
2023-05-16T22:11:02.419Z,17.13
2023-05-16T22:13:30.754Z,17.08
2023-05-16T22:16:04.373Z,17.03
2023-05-16T22:18:34.042Z,16.96
2023-05-16T22:21:02.512Z,16.91
2023-05-16T22:23:31.214Z,16.86
2023-05-16T22:25:59.419Z,16.82
2023-05-16T22:28:27.576Z,16.80
2023-05-16T22:30:55.776Z,16.78
2023-05-16T22:33:23.889Z,16.75
2023-05-16T22:35:51.912Z,16.75
2023-05-16T22:38:20.053Z,16.74
2023-05-16T22:40:48.119Z,16.73
2023-05-16T22:43:16.452Z,16.72
2023-05-16T22:45:44.697Z,16.72
2023-05-16T22:48:12.843Z,16.73
2023-05-16T22:50:40.904Z,16.73
2023-05-16T22:53:08.961Z,16.74
2023-05-16T22:55:36.948Z,16.74
2023-05-16T22:58:04.981Z,16.72
2023-05-16T23:00:33.036Z,16.68
2023-05-16T23:03:01.196Z,16.64
2023-05-16T23:05:29.709Z,16.62
2023-05-16T23:07:58.076Z,16.60
2023-05-16T23:10:26.076Z,16.57
2023-05-16T23:12:54.300Z,16.57
2023-05-16T23:15:22.636Z,16.58
2023-05-16T23:17:51.819Z,16.59
2023-05-16T23:20:20.099Z,16.61
2023-05-16T23:22:48.619Z,16.64
2023-05-16T23:25:16.859Z,16.68
2023-05-16T23:27:44.969Z,16.70
2023-05-16T23:30:13.244Z,16.72
2023-05-16T23:32:43.331Z,16.74
2023-05-16T23:35:11.799Z,16.74
2023-05-16T23:37:39.828Z,16.73
2023-05-16T23:40:08.966Z,16.74
2023-05-16T23:42:37.180Z,16.73
2023-05-16T23:45:05.998Z,16.73
2023-05-16T23:47:34.473Z,16.73
2023-05-16T23:50:04.154Z,16.73
2023-05-16T23:52:32.252Z,16.76
2023-05-16T23:55:00.550Z,16.78
2023-05-16T23:57:28.726Z,16.80
2023-05-16T23:59:56.956Z,16.82
